Thunder radar more information blitzortung!


Radar de pluja more information rain snow radar


Visita la nostra xarxa de llocs de meteo:

Template documentation
and downloads

And another site



No particular awareness of the weather is required.    There are no Weather-warnings

Pagina Historial Weather Underground text

Diari Resum Juliol 4, 2017 Unitats:  Imperial    Mètric   Tant
« Previous Dia
SegĂźent Dia »
Diari Setmana Mensual Anual Personalitzada
  Maxima: Minima: Media:
Temperatura: TemperatureC °F 16.4 °F 26 °F
Punt de rosada: DewpointC °F 8.7 °F 11.3 °F
Humitat: Humidity % 26 % 42 %
Wind Speed: WindSpeedKMH mph 0.0 mph 7.1 mph
RĂ fegues de vent: WindSpeedGustKMH mph - -
Vent:- - SSW
Pression baro: PressurehPa in 1014.8 in -
Precipitacions: 0.0 in    
Historical Graphs
 
 
Dades de taula per Juliol 4, 2017
Temps Temperatura Punt de rosada Pression baro Vent Wind Speed RĂ fegues de vent Humitat Rainfall Rate (Hourly)
TemperatureC °F DewpointC °F PressurehPa in Calm     Humidity % HourlyPrecipMM in
00:00 17.8 °F 13.5 °F 1017.8 in Calm   1.6 mph 76 % 0.0 in
00:01 21.4 °F 11.4 °F 1018.8 in WSW 3.7 mph 3.7 mph 53 % 0.0 in
00:06 21.3 °F 11.3 °F 1018.8 in West 3.7 mph 3.7 mph 53 % 0.0 in
00:10 17.6 °F 13.1 °F 1017.8 in Calm   3.2 mph 75 % 0.0 in
00:20 17.4 °F 12.9 °F 1017.8 in Calm     75 % 0.0 in
00:30 17.1 °F 12.8 °F 1017.8 in Calm   3.2 mph 76 % 0.0 in
00:40 16.8 °F 12.6 °F 1017.8 in WSW 1.6 mph 4.8 mph 76 % 0.0 in
00:50 16.6 °F 12.6 °F 1017.8 in WSW 3.2 mph 3.2 mph 77 % 0.0 in
01:00 16.5 °F 12.4 °F 1017.8 in SW 1.6 mph 3.2 mph 77 % 0.0 in
01:10 16.5 °F 12.7 °F 1017.8 in Calm   3.2 mph 78 % 0.0 in
01:20 16.5 °F 12.7 °F 1017.8 in Calm   1.6 mph 78 % 0.0 in
01:30 16.5 °F 12.8 °F 1017.8 in Calm     79 % 0.0 in
01:40 16.5 °F 12.8 °F 1017.8 in Calm     79 % 0.0 in
01:50 16.5 °F 12.8 °F 1017.8 in Calm   1.6 mph 79 % 0.0 in
02:00 16.4 °F 12.6 °F 1017.8 in WSW 3.2 mph 3.2 mph 78 % 0.0 in
02:10 16.4 °F 12.6 °F 1017.8 in SW 1.6 mph 3.2 mph 78 % 0.0 in
02:20 16.7 °F 12.4 °F 1018.8 in SW 3.2 mph 3.2 mph 76 % 0.0 in
02:30 16.9 °F 12.7 °F 1018.8 in Calm   3.2 mph 76 % 0.0 in
02:40 17.5 °F 12.8 °F 1018.8 in SW 1.6 mph 3.2 mph 74 % 0.0 in
02:50 18.3 °F 13.4 °F 1018.8 in Calm   1.6 mph 73 % 0.0 in
03:00 19.3 °F 13.9 °F 1018.8 in SW 1.6 mph 1.6 mph 71 % 0.0 in
03:10 20.1 °F 14.0 °F 1018.8 in Calm   1.6 mph 68 % 0.0 in
03:20 20.1 °F 13.6 °F 1018.8 in ESE 1.6 mph 3.2 mph 66 % 0.0 in
03:30 19.9 °F 13.6 °F 1018.8 in SW 1.6 mph 4.8 mph 67 % 0.0 in
03:40 20.6 °F 13.8 °F 1018.8 in SSW 1.6 mph 3.2 mph 65 % 0.0 in
03:50 21.2 °F 13.9 °F 1018.8 in South 1.6 mph 3.2 mph 63 % 0.0 in
04:00 21.7 °F 14.1 °F 1018.8 in SE 3.2 mph 3.2 mph 62 % 0.0 in
04:10 22.2 °F 14.3 °F 1018.8 in SE 1.6 mph 3.2 mph 61 % 0.0 in
04:20 23.4 °F 15.2 °F 1018.8 in South 1.6 mph 3.2 mph 60 % 0.0 in
04:30 23.4 °F 14.7 °F 1018.8 in Calm   4.8 mph 58 % 0.0 in
04:40 24.1 °F 14.8 °F 1018.8 in NE 3.2 mph 4.8 mph 56 % 0.0 in
04:50 24.2 °F 13.7 °F 1018.8 in ENE 3.2 mph 4.8 mph 52 % 0.0 in
05:00 24.8 °F 14.3 °F 1017.8 in Calm   3.2 mph 52 % 0.0 in
10:01 25.6 °F 14.4 °F 1017.8 in West 3.7 mph   50 % 0.0 in
10:06 26.0 °F 14.4 °F 1017.8 in WSW 5.0 mph 5.0 mph 49 % 0.0 in
10:11 25.3 °F 13.5 °F 1017.8 in SSE 5.6 mph 5.6 mph 48 % 0.0 in
10:16 25.8 °F 13.9 °F 1017.8 in ESE 3.7 mph 3.7 mph 48 % 0.0 in
10:21 25.9 °F 13.7 °F 1017.8 in NE 5.6 mph 5.6 mph 47 % 0.0 in
10:26 25.9 °F 13.7 °F 1017.8 in ENE 1.9 mph 1.9 mph 47 % 0.0 in
10:31 26.5 °F 13.9 °F 1017.8 in East 5.6 mph 5.6 mph 46 % 0.0 in
10:36 26.9 °F 14.3 °F 1017.8 in South 3.7 mph 3.7 mph 46 % 0.0 in
10:41 27.2 °F 14.2 °F 1016.8 in SW 4.7 mph 4.7 mph 45 % 0.0 in
10:46 27.1 °F 14.2 °F 1016.8 in West 7.4 mph 7.4 mph 45 % 0.0 in
10:51 27.7 °F 14.0 °F 1016.8 in SE 5.8 mph 5.8 mph 43 % 0.0 in
10:56 28.3 °F 13.8 °F 1017.8 in SSE 7.9 mph 7.9 mph 41 % 0.0 in
11:01 28.3 °F 13.8 °F 1017.8 in SW 4.7 mph 4.7 mph 41 % 0.0 in
11:06 28.5 °F 13.9 °F 1017.8 in SW 9.3 mph 9.3 mph 41 % 0.0 in
11:11 28.6 °F 14.1 °F 1016.8 in West 7.4 mph 7.4 mph 41 % 0.0 in
11:16 28.7 °F 13.8 °F 1016.8 in SW 3.7 mph 3.9 mph 40 % 0.0 in
11:21 28.7 °F 13.0 °F 1016.8 in SW 5.8 mph 5.8 mph 38 % 0.0 in
11:26 29.5 °F 12.8 °F 1017.8 in SE 5.6 mph 5.6 mph 36 % 0.0 in
11:31 29.4 °F 13.2 °F 1017.8 in NW 7.4 mph 7.4 mph 37 % 0.0 in
11:36 29.5 °F 12.8 °F 1017.8 in NNW 7.4 mph 7.4 mph 36 % 0.0 in
11:41 30.1 °F 12.5 °F 1017.8 in SSW 3.7 mph 3.7 mph 34 % 0.0 in
11:46 30.4 °F 13.2 °F 1017.8 in SW 5.6 mph 5.6 mph 35 % 0.0 in
11:51 30.3 °F 12.7 °F 1017.8 in SW 5.6 mph 5.6 mph 34 % 0.0 in
11:56 29.9 °F 12.8 °F 1017.8 in SW 9.7 mph 9.7 mph 35 % 0.0 in
12:01 30.1 °F 12.1 °F 1017.8 in WSW 3.9 mph 3.9 mph 33 % 0.0 in
12:06 30.3 °F 12.2 °F 1017.8 in WSW 9.3 mph 9.3 mph 33 % 0.0 in
12:11 30.7 °F 12.1 °F 1017.8 in SSW 5.3 mph 5.3 mph 32 % 0.0 in
12:16 31.2 °F 12.6 °F 1017.8 in SSW 9.0 mph 9.0 mph 32 % 0.0 in
12:21 30.7 °F 10.6 °F 1017.8 in East 9.3 mph 9.3 mph 29 % 0.0 in
12:26 30.8 °F 11.7 °F 1016.8 in West 5.6 mph 5.6 mph 31 % 0.0 in
12:31 31.0 °F 11.4 °F 1016.8 in SW 11.1 mph 11.1 mph 30 % 0.0 in
12:36 31.0 °F 10.9 °F 1016.8 in SE 5.6 mph 5.6 mph 29 % 0.0 in
12:41 31.5 °F 11.8 °F 1016.8 in WNW 3.7 mph 3.7 mph 30 % 0.0 in
12:46 31.4 °F 11.7 °F 1016.8 in WSW 6.1 mph 6.1 mph 30 % 0.0 in
12:51 31.8 °F 12.1 °F 1016.8 in South 3.7 mph 3.7 mph 30 % 0.0 in
12:56 31.6 °F 11.4 °F 1016.8 in SSE 9.3 mph 9.3 mph 29 % 0.0 in
13:01 31.3 °F 11.7 °F 1016.8 in SSE 9.3 mph 9.3 mph 30 % 0.0 in
13:06 31.0 °F 11.9 °F 1016.8 in ESE 16.7 mph 16.7 mph 31 % 0.0 in
13:11 30.2 °F 12.2 °F 1015.8 in ENE 15.6 mph 15.6 mph 33 % 0.0 in
13:16 30.1 °F 12.1 °F 1015.8 in ESE 11.4 mph 11.4 mph 33 % 0.0 in
13:21 30.1 °F 12.1 °F 1015.8 in SSE 14.8 mph 14.8 mph 33 % 0.0 in
13:26 30.4 °F 12.3 °F 1015.8 in East 11.1 mph 11.1 mph 33 % 0.0 in
13:31 30.0 °F 11.5 °F 1015.8 in ESE 18.5 mph 18.5 mph 32 % 0.0 in
13:32 30.1 °F 11.6 °F 1015.8 in ESE 13.0 mph 13.0 mph 32 % 0.0 in
13:37 30.6 °F 12.0 °F 1015.8 in ESE 13.0 mph 13.0 mph 32 % 0.0 in
13:42 30.6 °F 11.6 °F 1015.8 in ESE 14.8 mph 14.8 mph 31 % 0.0 in
13:47 30.4 °F 10.9 °F 1015.8 in ESE 20.4 mph 20.4 mph 30 % 0.0 in
13:52 30.8 °F 11.2 °F 1015.8 in SE 11.9 mph 11.9 mph 30 % 0.0 in
13:57 31.3 °F 11.7 °F 1015.8 in ESE 9.3 mph 9.3 mph 30 % 0.0 in
14:02 31.3 °F 11.1 °F 1015.8 in WSW 9.3 mph 9.3 mph 29 % 0.0 in
14:07 31.8 °F 12.1 °F 1015.8 in SSW 7.4 mph 7.4 mph 30 % 0.0 in
14:12 32.0 °F 11.7 °F 1015.8 in SW 13.0 mph 13.0 mph 29 % 0.0 in
14:17 32.4 °F 12.1 °F 1015.8 in WSW 7.4 mph 7.4 mph 29 % 0.0 in
14:22 32.3 °F 12.0 °F 1015.8 in SSW 9.3 mph 9.3 mph 29 % 0.0 in
14:27 32.1 °F 11.3 °F 1015.8 in SSW 9.3 mph 9.3 mph 28 % 0.0 in
14:32 32.4 °F 11.6 °F 1015.8 in WSW 14.0 mph 14.0 mph 28 % 0.0 in
14:37 32.4 °F 11.6 °F 1015.8 in SW 9.3 mph 9.3 mph 28 % 0.0 in
14:42 33.0 °F 12.1 °F 1015.8 in SSE 13.0 mph 13.0 mph 28 % 0.0 in
14:47 32.7 °F 11.8 °F 1015.8 in South 9.3 mph 9.3 mph 28 % 0.0 in
14:52 32.6 °F 11.7 °F 1015.8 in SW 13.0 mph 13.0 mph 28 % 0.0 in
14:57 32.4 °F 11.6 °F 1015.8 in South 16.7 mph 16.7 mph 28 % 0.0 in
15:02 32.0 °F 11.2 °F 1015.8 in SW 16.7 mph 16.7 mph 28 % 0.0 in
15:07 32.2 °F 11.4 °F 1015.8 in SW 9.3 mph 9.3 mph 28 % 0.0 in
15:12 32.1 °F 11.3 °F 1015.8 in SW 13.0 mph 13.0 mph 28 % 0.0 in
15:17 32.2 °F 11.4 °F 1015.8 in SW 14.8 mph 14.8 mph 28 % 0.0 in
15:22 32.0 °F 11.2 °F 1015.8 in SSW 18.5 mph 18.5 mph 28 % 0.0 in
15:27 32.0 °F 11.2 °F 1015.8 in SSW 9.7 mph 9.7 mph 28 % 0.0 in
15:32 32.3 °F 11.4 °F 1015.8 in WSW 14.8 mph 14.8 mph 28 % 0.0 in
15:37 32.9 °F 12.0 °F 1015.8 in SSW 7.4 mph 7.4 mph 28 % 0.0 in
15:42 32.7 °F 11.3 °F 1015.8 in ESE 9.3 mph 9.3 mph 27 % 0.0 in
15:47 33.0 °F 11.5 °F 1015.8 in SSW 11.9 mph 11.9 mph 27 % 0.0 in
15:52 32.5 °F 11.1 °F 1015.8 in South 9.3 mph 9.3 mph 27 % 0.0 in
15:57 32.8 °F 11.3 °F 1015.8 in SSE 9.3 mph 9.3 mph 27 % 0.0 in
16:02 33.0 °F 11.5 °F 1015.8 in South 9.5 mph 9.5 mph 27 % 0.0 in
16:07 32.1 °F 10.7 °F 1015.8 in SSE 14.8 mph 14.8 mph 27 % 0.0 in
16:12 32.6 °F 11.2 °F 1015.8 in WSW 7.4 mph 7.4 mph 27 % 0.0 in
16:17 31.9 °F 10.6 °F 1015.8 in SW 18.5 mph 18.5 mph 27 % 0.0 in
16:22 31.8 °F 11.1 °F 1015.8 in SSW 11.4 mph 11.4 mph 28 % 0.0 in
16:27 32.1 °F 10.7 °F 1015.8 in WSW 17.5 mph 17.5 mph 27 % 0.0 in
16:28 32.0 °F 10.7 °F 1015.8 in SSW 18.5 mph 18.5 mph 27 % 0.0 in
16:33 31.9 °F 11.1 °F 1015.8 in West 13.0 mph 13.0 mph 28 % 0.0 in
16:38 32.0 °F 10.7 °F 1015.8 in South 9.7 mph 9.7 mph 27 % 0.0 in
16:43 32.0 °F 10.7 °F 1015.8 in South 11.1 mph 11.1 mph 27 % 0.0 in
16:48 31.7 °F 10.9 °F 1015.8 in SW 16.7 mph 16.7 mph 28 % 0.0 in
16:53 32.1 °F 10.7 °F 1015.8 in SW 13.0 mph 13.0 mph 27 % 0.0 in
16:58 32.1 °F 10.7 °F 1015.8 in SW 9.3 mph 9.3 mph 27 % 0.0 in
17:03 32.2 °F 10.8 °F 1015.8 in SW 9.0 mph 9.0 mph 27 % 0.0 in
17:08 32.2 °F 10.8 °F 1015.8 in SW 10.3 mph 10.3 mph 27 % 0.0 in
17:13 32.2 °F 10.8 °F 1015.8 in SW 5.6 mph 6.4 mph 27 % 0.0 in
17:18 32.3 °F 10.9 °F 1015.8 in WSW 13.0 mph 13.0 mph 27 % 0.0 in
17:23 31.8 °F 10.5 °F 1015.8 in SSE 9.3 mph 9.3 mph 27 % 0.0 in
17:28 32.1 °F 10.2 °F 1015.8 in West 6.9 mph 6.9 mph 26 % 0.0 in
17:33 32.1 °F 10.7 °F 1015.8 in SW 9.3 mph 9.3 mph 27 % 0.0 in
17:38 31.5 °F 10.2 °F 1015.8 in SW 14.8 mph 14.8 mph 27 % 0.0 in
17:43 31.3 °F 10.1 °F 1014.8 in SW 12.6 mph 12.6 mph 27 % 0.0 in
17:48 31.1 °F 9.9 °F 1014.8 in SSW 9.3 mph 10.0 mph 27 % 0.0 in
17:53 31.3 °F 10.1 °F 1014.8 in WSW 8.7 mph 8.7 mph 27 % 0.0 in
17:54 31.3 °F 10.1 °F 1014.8 in South 5.6 mph 5.6 mph 27 % 0.0 in
17:59 31.0 °F 10.3 °F 1014.8 in SSW 14.8 mph 14.8 mph 28 % 0.0 in
18:04 31.3 °F 10.6 °F 1014.8 in SW 9.3 mph 9.3 mph 28 % 0.0 in
18:09 31.4 °F 10.7 °F 1014.8 in SSW 11.9 mph 11.9 mph 28 % 0.0 in
18:14 31.4 °F 10.7 °F 1014.8 in SSW 10.3 mph 10.3 mph 28 % 0.0 in
18:19 30.8 °F 10.2 °F 1014.8 in SW 16.1 mph 16.1 mph 28 % 0.0 in
18:24 30.3 °F 9.8 °F 1014.8 in SW 10.0 mph 10.0 mph 28 % 0.0 in
18:29 30.4 °F 9.8 °F 1014.8 in West 11.4 mph 11.4 mph 28 % 0.0 in
18:34 30.3 °F 9.8 °F 1014.8 in SSW 13.0 mph 13.0 mph 28 % 0.0 in
18:39 29.9 °F 9.4 °F 1014.8 in WSW 14.8 mph 14.8 mph 28 % 0.0 in
18:44 30.0 °F 9.5 °F 1014.8 in SW 20.4 mph 20.4 mph 28 % 0.0 in
18:49 29.9 °F 9.4 °F 1014.8 in SW 11.1 mph 11.1 mph 28 % 0.0 in
18:54 29.5 °F 9.1 °F 1014.8 in SW 16.7 mph 16.7 mph 28 % 0.0 in
18:59 29.6 °F 9.2 °F 1014.8 in SW 14.8 mph 14.8 mph 28 % 0.0 in
19:04 29.2 °F 8.8 °F 1014.8 in SW 14.8 mph 14.8 mph 28 % 0.0 in
19:09 29.1 °F 8.7 °F 1014.8 in SW 12.6 mph 12.6 mph 28 % 0.0 in
19:14 29.0 °F 8.7 °F 1014.8 in SW 9.3 mph 9.3 mph 28 % 0.0 in
19:19 29.4 °F 9.5 °F 1014.8 in South 9.3 mph 9.3 mph 29 % 0.0 in
19:20 21.2 °F 11.2 °F 1016.8 in Calm   1.6 mph 53 % 0.0 in
19:24 29.3 °F 9.4 °F 1014.8 in WSW 5.8 mph 5.8 mph 29 % 0.0 in
19:29 28.8 °F 9.5 °F 1014.8 in SW 13.0 mph 13.0 mph 30 % 0.0 in
19:30 21.0 °F 11.3 °F 1015.8 in WNW 1.6 mph 1.6 mph 54 % 0.0 in
19:34 28.6 °F 9.3 °F 1014.8 in SW 10.3 mph 10.3 mph 30 % 0.0 in
19:35 20.9 °F 11.5 °F 1015.8 in Calm     55 % 0.0 in
19:39 28.4 °F 9.2 °F 1014.8 in SW 9.3 mph 9.3 mph 30 % 0.0 in
19:44 28.3 °F 9.1 °F 1015.8 in SW 16.7 mph 16.7 mph 30 % 0.0 in
19:45 20.7 °F 11.3 °F 1015.8 in Calm   1.6 mph 55 % 0.0 in
19:49 28.0 °F 8.8 °F 1015.8 in WSW 9.3 mph 9.3 mph 30 % 0.0 in
19:54 28.0 °F 8.8 °F 1015.8 in South 9.3 mph 9.3 mph 30 % 0.0 in
19:59 27.8 °F 9.1 °F 1014.8 in WSW 14.8 mph 14.8 mph 31 % 0.0 in
20:04 27.6 °F 8.9 °F 1014.8 in SSW 11.4 mph 11.4 mph 31 % 0.0 in
20:05 20.3 °F 11.5 °F 1015.8 in Calm     57 % 0.0 in
20:09 27.6 °F 9.4 °F 1014.8 in SSW 9.0 mph 9.0 mph 32 % 0.0 in
20:10 20.1 °F 11.3 °F 1015.8 in Calm     57 % 0.0 in
20:14 27.2 °F 9.1 °F 1015.8 in SW 9.3 mph 9.3 mph 32 % 0.0 in
20:15 20.0 °F 11.5 °F 1015.8 in Calm     58 % 0.0 in
20:19 27.0 °F 8.9 °F 1015.8 in South 9.3 mph 9.3 mph 32 % 0.0 in
20:24 27.0 °F 8.9 °F 1015.8 in SSE 9.3 mph 9.3 mph 32 % 0.0 in
20:25 19.7 °F 11.4 °F 1015.8 in West 1.6 mph 1.6 mph 59 % 0.0 in
20:29 26.7 °F 9.1 °F 1015.8 in SW 5.6 mph 5.6 mph 33 % 0.0 in
20:34 26.5 °F 9.3 °F 1015.8 in SW 13.0 mph 13.0 mph 34 % 0.0 in
20:35 19.5 °F 11.3 °F 1015.8 in WSW 1.6 mph 3.2 mph 59 % 0.0 in
20:39 26.3 °F 9.2 °F 1015.8 in SW 11.1 mph 11.1 mph 34 % 0.0 in
20:44 26.0 °F 8.9 °F 1015.8 in WSW 14.8 mph 14.8 mph 34 % 0.0 in
20:45 19.2 °F 11.2 °F 1015.8 in Calm   3.2 mph 60 % 0.0 in
20:49 25.9 °F 8.8 °F 1015.8 in WSW 5.6 mph 5.6 mph 34 % 0.0 in
20:54 25.7 °F 8.7 °F 1015.8 in SW 11.1 mph 11.1 mph 34 % 0.0 in
20:55 19.1 °F 11.2 °F 1015.8 in Calm   3.2 mph 60 % 0.0 in
20:59 25.5 °F 8.9 °F 1015.8 in SSW 9.3 mph 9.3 mph 35 % 0.0 in
21:04 25.4 °F 8.8 °F 1015.8 in SSW 9.3 mph 9.3 mph 35 % 0.0 in
21:05 19.1 °F 11.4 °F 1015.8 in WSW 3.2 mph 3.2 mph 61 % 0.0 in
21:09 25.2 °F 8.7 °F 1015.8 in SW 13.0 mph 13.0 mph 35 % 0.0 in
21:14 25.1 °F 9.0 °F 1015.8 in WSW 7.4 mph 7.4 mph 36 % 0.0 in
21:15 19.0 °F 11.3 °F 1015.8 in NE 3.2 mph 3.2 mph 61 % 0.0 in
21:19 24.9 °F 9.2 °F 1015.8 in SW 11.1 mph 11.1 mph 37 % 0.0 in
21:24 24.7 °F 9.0 °F 1015.8 in SSW 11.1 mph 11.1 mph 37 % 0.0 in
21:25 19.0 °F 11.3 °F 1015.8 in NE 1.6 mph 3.2 mph 61 % 0.0 in
21:29 24.6 °F 9.3 °F 1015.8 in SW 9.3 mph 9.3 mph 38 % 0.0 in
21:34 24.4 °F 9.2 °F 1015.8 in WSW 9.3 mph 9.3 mph 38 % 0.0 in
21:35 24.4 °F 9.2 °F 1015.8 in WSW 7.4 mph 7.4 mph 38 % 0.0 in
21:39 24.3 °F 9.4 °F 1015.8 in WSW 9.3 mph 9.3 mph 39 % 0.0 in
21:44 24.1 °F 9.3 °F 1015.8 in SW 11.1 mph 11.1 mph 39 % 0.0 in
21:45 18.6 °F 11.2 °F 1015.8 in Calm   1.6 mph 62 % 0.0 in
21:49 24.0 °F 9.6 °F 1015.8 in SW 9.3 mph 9.3 mph 40 % 0.0 in
21:54 23.8 °F 9.4 °F 1015.8 in SW 9.5 mph 9.5 mph 40 % 0.0 in
21:55 18.4 °F 11.2 °F 1015.8 in Calm     63 % 0.0 in
21:59 23.7 °F 9.7 °F 1015.8 in SW 5.6 mph 5.6 mph 41 % 0.0 in
22:04 23.5 °F 9.5 °F 1015.8 in SW 9.3 mph 9.3 mph 41 % 0.0 in
22:05 18.1 °F 11.2 °F 1014.8 in Calm     64 % 0.0 in
22:09 23.4 °F 9.8 °F 1015.8 in WSW 6.9 mph 6.9 mph 42 % 0.0 in
22:14 23.2 °F 9.9 °F 1015.8 in SW 9.3 mph 9.3 mph 43 % 0.0 in
22:15 17.9 °F 11.0 °F 1015.8 in SW 1.6 mph 1.6 mph 64 % 0.0 in
22:19 23.1 °F 10.2 °F 1015.8 in SW 5.6 mph 5.6 mph 44 % 0.0 in
22:24 23.0 °F 10.4 °F 1015.8 in WSW 7.9 mph 7.9 mph 45 % 0.0 in
22:25 17.7 °F 11.1 °F 1015.8 in Calm     65 % 0.0 in
22:29 22.9 °F 10.7 °F 1015.8 in WSW 5.8 mph 5.8 mph 46 % 0.0 in
22:34 22.8 °F 10.9 °F 1015.8 in SW 5.6 mph 5.6 mph 47 % 0.0 in
22:35 17.6 °F 11.2 °F 1014.8 in Calm     66 % 0.0 in
22:39 22.7 °F 10.8 °F 1015.8 in SW 3.7 mph 4.7 mph 47 % 0.0 in
22:44 22.5 °F 10.9 °F 1015.8 in SW 3.7 mph 3.7 mph 48 % 0.0 in
22:45 17.4 °F 11.0 °F 1016.8 in Calm     66 % 0.0 in
22:49 22.4 °F 11.2 °F 1015.8 in SW 3.7 mph 3.7 mph 49 % 0.0 in
22:54 22.3 °F 11.1 °F 1015.8 in SSW 4.2 mph 4.2 mph 49 % 0.0 in
22:55 17.4 °F 11.0 °F 1016.8 in Calm     66 % 0.0 in
22:59 22.3 °F 11.1 °F 1015.8 in WSW 3.7 mph 3.7 mph 49 % 0.0 in
23:04 22.2 °F 11.3 °F 1015.8 in WSW 3.7 mph 3.7 mph 50 % 0.0 in
23:05 17.3 °F 11.1 °F 1015.8 in Calm     67 % 0.0 in
23:09 22.1 °F 11.2 °F 1015.8 in WNW 1.9 mph 1.9 mph 50 % 0.0 in
23:14 22.1 °F 11.2 °F 1015.8 in SW 3.7 mph 3.7 mph 50 % 0.0 in
23:15 17.2 °F 11.0 °F 1015.8 in Calm     67 % 0.0 in
23:19 22.0 °F 11.1 °F 1015.8 in WSW 3.7 mph 3.7 mph 50 % 0.0 in
23:24 22.0 °F 11.4 °F 1015.8 in NNW 1.4 mph   51 % 0.0 in
23:25 17.1 °F 10.9 °F 1015.8 in Calm     67 % 0.0 in
23:29 21.9 °F 11.3 °F 1015.8 in WSW 3.7 mph 3.7 mph 51 % 0.0 in
23:34 21.9 °F 11.3 °F 1015.8 in WSW 1.9 mph   51 % 0.0 in
23:35 17.1 °F 10.9 °F 1015.8 in Calm     67 % 0.0 in
23:39 21.8 °F 11.5 °F 1015.8 in West 1.9 mph   52 % 0.0 in
23:44 21.8 °F 11.5 °F 1015.8 in WSW 3.7 mph 3.7 mph 52 % 0.0 in
23:45 16.8 °F 10.8 °F 1015.8 in Calm   1.6 mph 68 % 0.0 in
23:49 21.7 °F 11.4 °F 1015.8 in WNW 1.9 mph 1.9 mph 52 % 0.0 in
23:54 21.7 °F 11.4 °F 1015.8 in West 3.7 mph 3.7 mph 52 % 0.0 in
23:55 16.7 °F 11.0 °F 1015.8 in Calm     69 % 0.0 in
23:59 21.6 °F 11.6 °F 1015.8 in West 1.4 mph   53 % 0.0 in
Meteo Sesrovires
Elogis d' Weather Underground - 1.5 mb

Guio original per  Jim McMurry - jmcmurry@mwt.net Adaptat per a la plantilla per  Wim van der Kuil - Leuven-Template.eu

Trobareu la nostra informacio del temps tambe a:

Weather Underground

AWEKAS